Wednesday, January 17, 2018, 6:26 AM EST
Back to Local

KHVN, Tweed-new Haven Airport

Location: East Haven, CT, United States Lat: 41.267
Local Time: 6:26 AM EST (11:26 GMT) Lon: -72.883
Time Zone: US/Eastern Elev: 13 ft

Show me the last for .
Show Decoded

2018-01-17 05:53 METAR KHVN 171053Z AUTO 06005KT 10SM UP OVC007 02/01 A3027 RMK AO2 UPE04B38
                 SLP249 P0001 T00220011 =
2018-01-17 04:53 METAR KHVN 170953Z AUTO 06007KT 7SM UP OVC006 03/02 A3026 RMK AO2
                 RAE0856B18E38UPB0856E18B38 SLP247 P0003 T00280017 =
2018-01-17 04:14 METAR KHVN 170914Z AUTO 08006KT 6SM UP BR OVC005 03/02 A3028 RMK AO2
                 RAE0856UPB0856 P0001 T00280017 =
2018-01-17 03:53 METAR KHVN 170853Z AUTO 06004KT 5SM -RA BR BKN004 OVC009 03/01 A3028 RMK AO2
                 UPB19E28RAB28 SLP254 P0004 60004 T00280011 56015 =
2018-01-17 03:42 METAR KHVN 170842Z AUTO 05005KT 4SM -RA BR OVC004 03/01 A3029 RMK AO2
                 UPB19E28RAB28 P0003 T00280011 =
2018-01-17 02:53 METAR KHVN 170753Z AUTO 07005KT 10SM OVC007 03/01 A3030 RMK AO2 RAB10E21UPB21E49
                 SLP261 P0000 T00280011 =
2018-01-17 02:15 METAR KHVN 170715Z AUTO 08008KT 6SM -RA BR BKN009 OVC015 03/01 A3031 RMK AO2
                 RAB10 P0000 T00280006 =
2018-01-17 02:07 METAR KHVN 170707Z AUTO 08007KT 9SM BKN011 OVC017 03/01 A3031 RMK AO2 T00280006
                 =
2018-01-17 01:53 METAR KHVN 170653Z AUTO 09009KT 10SM OVC017 03/01 A3031 RMK AO2 SLP262 T00280006
                 =
2018-01-17 01:09 METAR KHVN 170609Z AUTO 09009KT 10SM SCT013 BKN024 OVC039 03/00 A3032 RMK AO2
                 T00280000 =
2018-01-17 00:53 METAR KHVN 170553Z AUTO 09009KT 10SM BKN013 OVC018 03/M01 A3033 RMK AO2 SLP270
                 T00281006 10033 20011 58022 =
2018-01-16 23:53 METAR KHVN 170453Z AUTO 10011G16KT 10SM OVC019 03/M01 A3035 RMK AO2 SLP277
                 T00281006 400331078 =
2018-01-16 22:53 METAR KHVN 170353Z AUTO 10007KT 10SM OVC020 03/M01 A3038 RMK AO2 SLP286
                 T00331011 =
2018-01-16 22:39 METAR KHVN 170339Z AUTO 10007KT 10SM BKN021 OVC036 03/M01 A3038 RMK AO2
                 T00331011 =
2018-01-16 21:53 METAR KHVN 170253Z 11007KT 10SM OVC035 03/M01 A3039 RMK AO2 SLP291 T00281011
                 56012 =
2018-01-16 20:53 METAR KHVN 170153Z 10006KT 10SM OVC032 02/M02 A3040 RMK AO2 SLP294 T00221017 =
2018-01-16 19:53 METAR KHVN 170053Z 06003KT 10SM OVC034 01/M02 A3041 RMK AO2 SLP298 T00111022 =
2018-01-16 18:53 METAR KHVN 162353Z 09003KT 10SM OVC032 02/M02 A3043 RMK AO2 SLP303 T00171017
                 10017 21006 55003 =
2018-01-16 17:53 METAR KHVN 162253Z 00000KT 10SM OVC034 01/M03 A3042 RMK AO2 SLP302 T00111028 =
2018-01-16 16:53 METAR KHVN 162153Z 00000KT 10SM OVC033 01/M03 A3043 RMK AO2 SLP303 T00111033 =
2018-01-16 15:53 METAR KHVN 162053Z COR 13004KT 10SM OVC033 01/M04 A3044 RMK AO2 SLP306 T00111039
                 56006 =
2018-01-16 14:53 METAR KHVN 161953Z 00000KT 10SM OVC033 01/M04 A3044 RMK AO2 SLP307 T00061044 $ =
2018-01-16 13:53 METAR KHVN 161853Z 11004KT 10SM OVC033 01/M04 A3044 RMK AO2 SLP308 T00061044 $ =
2018-01-16 12:53 METAR KHVN 161753Z 09005KT 10SM OVC032 00/M06 A3045 RMK AO2 SLP312 T00001056
                 10000 21067 58024 $ =
2018-01-16 11:53 METAR KHVN 161653Z 22003KT 10SM OVC031 M01/M07 A3048 RMK AO2 SLP321 T10111067 $
                 =
2018-01-16 10:53 METAR KHVN 161553Z 00000KT 10SM FEW035 OVC090 M01/M08 A3051 RMK AO2 SLP330
                 T10111078 $ =
2018-01-16 09:53 METAR KHVN 161453Z 00000KT 10SM FEW020 OVC095 M03/M09 A3052 RMK AO2 SLP336
                 T10331094 50005 $ =
2018-01-16 08:53 METAR KHVN 161353Z 00000KT 10SM OVC018 M04/M11 A3054 RMK AO2 SLP341 T10441106 $
                 =
2018-01-16 07:53 METAR KHVN 161253Z 35005KT 10SM OVC018 M05/M11 A3053 RMK AO2 SLP337 T10501111 $
                 =
2018-01-16 07:22 METAR KHVN 161222Z 35003KT 10SM BKN018 BKN039 OVC100 M06/M11 A3052 RMK AO2
                 T10561111 $ =
2018-01-16 06:53 METAR KHVN 161153Z 01004KT 10SM BKN040 M07/M12 A3051 RMK AO2 SLP331 T10671122
                 11061 21078 53001 $ =

Support USWX by starting your Amazon purchase here.